createdAt,value
2023-03-21T00:00:22.458Z,98854.63
2023-03-21T00:01:24.316Z,98852.19
2023-03-21T00:02:26.331Z,98857.06
2023-03-21T00:03:28.878Z,98859.75
2023-03-21T00:04:40.925Z,98857.06
2023-03-21T00:05:49.953Z,98853.28
2023-03-21T00:06:52.622Z,98859.22
2023-03-21T00:07:54.812Z,98858.44
2023-03-21T00:08:56.767Z,98852.22
2023-03-21T00:10:08.672Z,98846.84
2023-03-21T00:11:16.643Z,98850.34
2023-03-21T00:12:21.016Z,98847.13
2023-03-21T00:13:22.926Z,98853.59
2023-03-21T00:14:26.080Z,98852.00
2023-03-21T00:16:53.342Z,98850.91
2023-03-21T00:18:03.676Z,98847.69
2023-03-21T00:19:06.377Z,98845.00
2023-03-21T00:20:15.282Z,98847.13
2023-03-21T00:21:48.832Z,98845.25
2023-03-21T00:22:43.735Z,98846.03
2023-03-21T00:23:46.791Z,98843.91
2023-03-21T00:24:48.613Z,98843.09
2023-03-21T00:25:50.494Z,98842.03
2023-03-21T00:26:52.353Z,98839.59
2023-03-21T00:28:07.508Z,98838.78
2023-03-21T00:29:10.504Z,98839.31
2023-03-21T00:30:13.264Z,98839.59
2023-03-21T00:31:15.432Z,98836.91
2023-03-21T00:32:19.369Z,98838.78
2023-03-21T00:33:22.812Z,98832.88
2023-03-21T00:34:36.578Z,98833.69
2023-03-21T00:36:02.442Z,98822.91
2023-03-21T00:37:07.968Z,98820.75
2023-03-21T00:38:10.553Z,98825.59
2023-03-21T00:39:12.396Z,98825.59
2023-03-21T00:40:26.713Z,98824.28
2023-03-21T00:41:47.198Z,98828.59
2023-03-21T00:42:49.047Z,98825.88
2023-03-21T00:43:51.888Z,98824.28
2023-03-21T00:44:53.688Z,98824.56
2023-03-21T00:45:56.867Z,98820.78
2023-03-21T00:47:07.397Z,98817.81
2023-03-21T00:48:10.724Z,98822.09
2023-03-21T00:49:12.877Z,98821.88
2023-03-21T00:50:14.702Z,98810.53
2023-03-21T00:51:26.354Z,98815.63
2023-03-21T00:52:40.221Z,98805.41
2023-03-21T00:53:43.014Z,98812.69
2023-03-21T00:54:45.308Z,98808.91
2023-03-21T00:55:47.906Z,98810.81
2023-03-21T00:56:49.695Z,98804.63
2023-03-21T00:58:01.196Z,98802.72
2023-03-21T00:59:04.230Z,98809.47
2023-03-21T01:00:10.378Z,98798.41
2023-03-21T01:01:12.291Z,98798.97
2023-03-21T01:02:14.778Z,98799.50
2023-03-21T01:03:25.049Z,98807.06
2023-03-21T01:04:28.619Z,98805.47
2023-03-21T01:05:52.354Z,98807.34
2023-03-21T01:06:55.326Z,98800.06
2023-03-21T01:07:57.741Z,98799.00
2023-03-21T01:08:59.864Z,98796.03
2023-03-21T01:10:01.801Z,98799.28
2023-03-21T01:11:08.839Z,98799.78
2023-03-21T01:12:11.224Z,98801.13
2023-03-21T01:13:16.898Z,98794.69
2023-03-21T01:14:23.548Z,98801.13
2023-03-21T01:15:25.687Z,98802.22
2023-03-21T01:16:27.681Z,98803.03
2023-03-21T01:17:29.479Z,98792.25
2023-03-21T01:18:32.487Z,98793.31
2023-03-21T01:19:50.298Z,98794.41
2023-03-21T01:20:54.494Z,98789.53
2023-03-21T01:21:57.291Z,98791.72
2023-03-21T01:22:59.123Z,98789.31
2023-03-21T01:24:01.765Z,98794.41
2023-03-21T01:25:21.264Z,98791.19
2023-03-21T01:26:24.251Z,98788.22
2023-03-21T01:27:26.101Z,98792.00
2023-03-21T01:28:29.695Z,98788.22
2023-03-21T01:29:32.623Z,98790.38
2023-03-21T01:30:41.739Z,98789.31
2023-03-21T01:31:43.978Z,98786.34
2023-03-21T01:32:45.971Z,98789.88
2023-03-21T01:33:48.386Z,98780.94
2023-03-21T01:34:50.360Z,98788.22
2023-03-21T01:36:00.299Z,98787.16
2023-03-21T01:37:08.318Z,98783.63
2023-03-21T01:38:11.089Z,98779.34
2023-03-21T01:39:12.930Z,98783.13
2023-03-21T01:40:23.218Z,98780.13
2023-03-21T01:41:43.075Z,98779.34
2023-03-21T01:42:46.600Z,98780.41
2023-03-21T01:43:48.719Z,98781.50
2023-03-21T01:44:53.697Z,98781.22
2023-03-21T01:46:10.588Z,98776.66
2023-03-21T01:47:13.033Z,98779.38
2023-03-21T01:48:16.118Z,98778.56
2023-03-21T01:49:34.291Z,98777.75
2023-03-21T01:50:37.124Z,98780.44
2023-03-21T01:51:56.701Z,98771.28
2023-03-21T01:53:01.268Z,98776.16
2023-03-21T01:54:06.724Z,98778.31
2023-03-21T01:55:14.046Z,98778.03
2023-03-21T01:56:38.750Z,98776.69
2023-03-21T01:58:04.866Z,98774.25
2023-03-21T01:59:23.043Z,98771.56
2023-03-21T02:00:29.563Z,98771.84
2023-03-21T02:01:34.715Z,98769.97
2023-03-21T02:02:37.428Z,98770.78
2023-03-21T02:03:50.288Z,98765.38
2023-03-21T02:04:55.886Z,98770.25
2023-03-21T02:06:35.317Z,98763.78
2023-03-21T02:07:41.745Z,98767.28
2023-03-21T02:08:43.603Z,98770.53
2023-03-21T02:09:49.223Z,98760.28
2023-03-21T02:10:51.662Z,98760.03
2023-03-21T02:11:55.243Z,98759.75
2023-03-21T02:13:09.355Z,98754.38
2023-03-21T02:14:26.591Z,98755.97
2023-03-21T02:15:30.711Z,98756.53
2023-03-21T02:16:53.926Z,98751.66
2023-03-21T02:18:28.880Z,98757.03
2023-03-21T02:19:55.022Z,98750.88
2023-03-21T02:21:11.904Z,98756.25
2023-03-21T02:22:53.911Z,98744.41
2023-03-21T02:24:13.136Z,98750.06
2023-03-21T02:25:45.682Z,98754.66
2023-03-21T02:27:04.265Z,98754.94
2023-03-21T02:28:12.277Z,98753.59
2023-03-21T02:29:54.307Z,98751.44
2023-03-21T02:32:19.959Z,98748.72
2023-03-21T02:34:03.237Z,98746.31
2023-03-21T02:35:17.052Z,98746.59
2023-03-21T02:36:27.693Z,98747.69
2023-03-21T02:37:38.458Z,98742.84
2023-03-21T02:38:47.395Z,98750.66
2023-03-21T02:40:19.512Z,98745.53
2023-03-21T02:41:29.774Z,98747.44
2023-03-21T02:43:00.874Z,98739.59
2023-03-21T02:44:43.421Z,98738.53
2023-03-21T02:46:01.950Z,98746.06
2023-03-21T02:47:28.874Z,98748.25
2023-03-21T02:48:50.964Z,98741.25
2023-03-21T02:49:58.769Z,98740.44
2023-03-21T02:51:05.714Z,98743.41
2023-03-21T02:52:22.915Z,98732.91
2023-03-21T02:53:40.253Z,98743.41
2023-03-21T02:54:48.316Z,98737.50
2023-03-21T02:55:53.432Z,98743.13
2023-03-21T02:56:59.206Z,98733.97
2023-03-21T02:58:12.296Z,98739.63
2023-03-21T02:59:19.692Z,98736.66
2023-03-21T03:00:29.598Z,98739.91
2023-03-21T03:01:32.254Z,98731.56
2023-03-21T03:02:34.347Z,98732.63
2023-03-21T03:03:39.346Z,98738.84
2023-03-21T03:04:41.310Z,98738.56
2023-03-21T03:05:52.328Z,98740.19
2023-03-21T03:07:17.991Z,98739.63
2023-03-21T03:08:59.785Z,98741.00
2023-03-21T03:10:36.350Z,98741.00
2023-03-21T03:11:44.738Z,98735.84
2023-03-21T03:13:17.092Z,98729.69
2023-03-21T03:14:44.221Z,98734.25
2023-03-21T03:16:11.318Z,98739.34
2023-03-21T03:17:48.755Z,98738.84
2023-03-21T03:18:56.440Z,98734.81
2023-03-21T03:20:35.411Z,98740.72
2023-03-21T03:21:56.555Z,98735.09
2023-03-21T03:23:09.603Z,98735.38
2023-03-21T03:24:24.530Z,98731.34
2023-03-21T03:25:46.220Z,98733.47
2023-03-21T03:26:57.550Z,98731.06
2023-03-21T03:28:03.258Z,98723.50
2023-03-21T03:29:16.750Z,98727.00
2023-03-21T03:30:19.119Z,98717.56
2023-03-21T03:31:32.134Z,98718.94
2023-03-21T03:32:39.749Z,98717.88
2023-03-21T03:33:48.269Z,98720.00
2023-03-21T03:34:56.400Z,98720.00
2023-03-21T03:36:05.433Z,98720.00
2023-03-21T03:37:16.626Z,98723.00
2023-03-21T03:38:23.331Z,98722.47
2023-03-21T03:39:36.133Z,98717.28
2023-03-21T03:40:48.985Z,98718.94
2023-03-21T03:42:27.639Z,98720.81
2023-03-21T03:43:34.264Z,98721.63
2023-03-21T03:44:37.285Z,98718.38
2023-03-21T03:45:51.845Z,98721.63
2023-03-21T03:47:04.243Z,98729.69
2023-03-21T03:48:18.540Z,98724.84
2023-03-21T03:49:33.372Z,98731.59
2023-03-21T03:50:55.464Z,98721.88
2023-03-21T03:52:23.758Z,98722.44
2023-03-21T03:53:54.229Z,98727.00
2023-03-21T03:54:56.890Z,98725.66
2023-03-21T03:56:01.467Z,98725.66
2023-03-21T03:57:06.017Z,98726.75
2023-03-21T03:58:19.662Z,98724.34
2023-03-21T03:59:25.194Z,98730.53
2023-03-21T04:00:28.006Z,98728.63
2023-03-21T04:01:29.871Z,98732.94
2023-03-21T04:02:32.191Z,98727.28
2023-03-21T04:03:48.947Z,98729.72
2023-03-21T04:04:53.188Z,98721.66
2023-03-21T04:05:55.093Z,98718.97
2023-03-21T04:06:58.081Z,98714.63
2023-03-21T04:08:00.203Z,98722.69
2023-03-21T04:09:13.614Z,98719.19
2023-03-21T04:10:22.678Z,98720.81
2023-03-21T04:11:24.710Z,98725.16
2023-03-21T04:12:26.681Z,98722.69
2023-03-21T04:13:28.513Z,98719.19
2023-03-21T04:14:42.070Z,98716.50
2023-03-21T04:15:46.302Z,98723.50
2023-03-21T04:16:49.175Z,98720.56
2023-03-21T04:17:51.323Z,98716.78
2023-03-21T04:18:53.172Z,98718.69
2023-03-21T04:20:05.409Z,98722.16
2023-03-21T04:21:13.908Z,98718.41
2023-03-21T04:22:15.691Z,98719.47
2023-03-21T04:23:20.082Z,98716.25
2023-03-21T04:24:22.514Z,98721.38
2023-03-21T04:25:33.351Z,98710.06
2023-03-21T04:26:36.305Z,98717.06
2023-03-21T04:27:38.112Z,98718.16
2023-03-21T04:28:40.755Z,98716.53
2023-03-21T04:29:42.864Z,98717.34
2023-03-21T04:30:58.946Z,98713.84
2023-03-21T04:32:04.268Z,98718.94
2023-03-21T04:33:06.057Z,98715.47
2023-03-21T04:34:12.280Z,98712.75
2023-03-21T04:35:14.322Z,98718.94
2023-03-21T04:36:26.311Z,98718.16
2023-03-21T04:37:28.161Z,98720.56
2023-03-21T04:38:30.800Z,98714.66
2023-03-21T04:39:32.922Z,98718.94
2023-03-21T04:40:34.909Z,98715.47
2023-03-21T04:41:37.301Z,98714.38
2023-03-21T04:42:39.204Z,98707.38
2023-03-21T04:43:41.090Z,98716.25
2023-03-21T04:44:42.850Z,98711.97
2023-03-21T04:45:44.689Z,98712.75
2023-03-21T04:46:46.661Z,98705.78
2023-03-21T04:47:48.456Z,98708.47
2023-03-21T04:48:50.289Z,98701.47
2023-03-21T04:49:53.607Z,98704.44
2023-03-21T04:50:55.541Z,98704.97
2023-03-21T04:51:57.400Z,98707.38
2023-03-21T04:52:59.247Z,98706.06
2023-03-21T04:54:01.070Z,98703.38
2023-03-21T04:55:03.219Z,98706.06
2023-03-21T04:56:06.473Z,98701.75
2023-03-21T04:57:08.805Z,98700.41
2023-03-21T04:58:10.666Z,98704.16
2023-03-21T04:59:16.657Z,98703.09
2023-03-21T05:00:19.016Z,98704.44
2023-03-21T05:01:20.932Z,98696.38
2023-03-21T05:02:22.965Z,98697.19
2023-03-21T05:03:25.639Z,98696.38
2023-03-21T05:04:28.347Z,98695.56
2023-03-21T05:05:30.189Z,98694.50
2023-03-21T05:06:32.195Z,98694.75
2023-03-21T05:07:33.999Z,98696.38
2023-03-21T05:08:36.886Z,98696.38
2023-03-21T05:09:38.795Z,98695.56
2023-03-21T05:10:40.665Z,98694.50
2023-03-21T05:11:43.477Z,98698.78
2023-03-21T05:12:45.454Z,98697.44
2023-03-21T05:13:47.319Z,98700.41
2023-03-21T05:14:49.154Z,98698.78
2023-03-21T05:15:51.067Z,98695.00
2023-03-21T05:16:56.245Z,98700.41
2023-03-21T05:17:58.657Z,98697.44
2023-03-21T05:19:05.019Z,98709.00
2023-03-21T05:20:09.775Z,98697.97
2023-03-21T05:21:11.592Z,98695.53
2023-03-21T05:22:14.215Z,98695.25
2023-03-21T05:23:18.532Z,98701.72
2023-03-21T05:24:22.699Z,98694.19
2023-03-21T05:25:34.004Z,98696.06
2023-03-21T05:26:35.810Z,98695.00
2023-03-21T05:27:37.601Z,98697.16
2023-03-21T05:28:40.051Z,98698.25
2023-03-21T05:29:41.926Z,98691.78
2023-03-21T05:30:47.568Z,98694.47
2023-03-21T05:31:49.410Z,98697.16
2023-03-21T05:32:51.288Z,98697.69
2023-03-21T05:33:53.120Z,98692.56
2023-03-21T05:34:55.336Z,98694.19
2023-03-21T05:35:57.343Z,98697.16
2023-03-21T05:36:59.438Z,98705.75
2023-03-21T05:38:01.492Z,98699.56
2023-03-21T05:39:03.797Z,98699.81
2023-03-21T05:40:07.617Z,98702.50
2023-03-21T05:41:09.567Z,98695.78
2023-03-21T05:42:11.410Z,98695.78
2023-03-21T05:43:13.185Z,98697.69
2023-03-21T05:44:15.475Z,98702.78
2023-03-21T05:45:17.384Z,98702.22
2023-03-21T05:46:19.408Z,98707.88
2023-03-21T05:47:21.269Z,98697.94
2023-03-21T05:48:23.150Z,98699.81
2023-03-21T05:49:25.024Z,98699.00
2023-03-21T05:50:26.889Z,98703.31
2023-03-21T05:51:28.800Z,98706.81
2023-03-21T05:52:30.819Z,98709.78
2023-03-21T05:53:32.704Z,98706.53
2023-03-21T05:54:34.632Z,98712.19
2023-03-21T05:55:37.321Z,98712.19
2023-03-21T05:56:39.274Z,98713.78
2023-03-21T05:57:41.078Z,98719.47
2023-03-21T05:58:43.144Z,98716.50
2023-03-21T05:59:45.725Z,98715.44
2023-03-21T06:00:47.717Z,98714.59
2023-03-21T06:01:49.588Z,98717.28
2023-03-21T06:02:51.368Z,98711.91
2023-03-21T06:03:53.322Z,98718.69
2023-03-21T06:04:55.171Z,98720.28
2023-03-21T06:05:56.933Z,98720.28
2023-03-21T06:06:58.947Z,98713.03
2023-03-21T06:08:00.916Z,98715.44
2023-03-21T06:09:02.868Z,98719.22
2023-03-21T06:10:05.999Z,98719.75
2023-03-21T06:11:23.200Z,98716.50
2023-03-21T06:12:25.263Z,98711.66
2023-03-21T06:13:27.133Z,98709.78
2023-03-21T06:14:28.994Z,98717.84
2023-03-21T06:15:30.983Z,98715.16
2023-03-21T06:16:33.032Z,98709.78
2023-03-21T06:17:35.203Z,98711.38
2023-03-21T06:18:37.357Z,98715.69
2023-03-21T06:19:39.136Z,98714.34
2023-03-21T06:20:41.212Z,98708.16
2023-03-21T06:21:43.248Z,98699.28
2023-03-21T06:22:45.375Z,98711.66
2023-03-21T06:23:47.716Z,98712.47
2023-03-21T06:24:49.637Z,98717.56
2023-03-21T06:25:51.512Z,98717.56
2023-03-21T06:26:53.323Z,98716.78
2023-03-21T06:27:55.401Z,98715.16
2023-03-21T06:28:57.476Z,98720.28
2023-03-21T06:29:59.410Z,98715.97
2023-03-21T06:31:01.346Z,98715.97
2023-03-21T06:32:03.289Z,98724.84
2023-03-21T06:33:05.196Z,98715.97
2023-03-21T06:34:07.545Z,98723.75
2023-03-21T06:35:09.605Z,98721.34
2023-03-21T06:36:11.835Z,98718.66
2023-03-21T06:37:13.605Z,98723.75
2023-03-21T06:38:15.728Z,98730.75
2023-03-21T06:39:18.001Z,98727.25
2023-03-21T06:40:19.944Z,98720.53
2023-03-21T06:41:21.737Z,98717.56
2023-03-21T06:42:23.822Z,98722.69
2023-03-21T06:43:25.737Z,98721.88
2023-03-21T06:44:27.800Z,98718.38
2023-03-21T06:45:29.708Z,98726.72
2023-03-21T06:46:31.572Z,98718.09
2023-03-21T06:47:33.436Z,98723.50
2023-03-21T06:48:35.235Z,98716.22
2023-03-21T06:49:37.023Z,98717.81
2023-03-21T06:50:38.950Z,98718.91
2023-03-21T06:51:40.872Z,98710.84
2023-03-21T06:52:42.846Z,98715.69
2023-03-21T06:53:44.793Z,98711.91
2023-03-21T06:54:46.632Z,98716.22
2023-03-21T06:55:52.202Z,98722.16
2023-03-21T06:56:54.923Z,98722.41
2023-03-21T06:57:57.616Z,98717.03
2023-03-21T06:58:59.514Z,98708.94
2023-03-21T07:00:01.430Z,98709.75
2023-03-21T07:01:04.864Z,98710.31
2023-03-21T07:02:07.476Z,98712.44
2023-03-21T07:03:09.384Z,98708.94
2023-03-21T07:04:11.405Z,98705.44
2023-03-21T07:05:13.566Z,98717.03
2023-03-21T07:06:16.491Z,98710.59
2023-03-21T07:07:18.405Z,98715.97
2023-03-21T07:08:20.582Z,98714.09
2023-03-21T07:09:24.633Z,98715.97
2023-03-21T07:10:26.594Z,98710.31
2023-03-21T07:11:28.588Z,98706.00
2023-03-21T07:12:34.030Z,98719.19
2023-03-21T07:13:36.700Z,98722.69
2023-03-21T07:14:38.519Z,98715.41
2023-03-21T07:15:41.339Z,98713.81
2023-03-21T07:16:43.158Z,98715.41
2023-03-21T07:17:45.125Z,98707.63
2023-03-21T07:18:47.712Z,98714.31
2023-03-21T07:19:49.615Z,98718.09
2023-03-21T07:20:51.681Z,98714.31
2023-03-21T07:21:53.626Z,98718.09
2023-03-21T07:22:56.227Z,98715.41
2023-03-21T07:23:58.073Z,98708.94
2023-03-21T07:25:05.211Z,98709.75
2023-03-21T07:26:07.780Z,98717.81
2023-03-21T07:27:09.920Z,98717.03
2023-03-21T07:28:11.847Z,98712.44
2023-03-21T07:29:13.695Z,98717.03
2023-03-21T07:30:15.936Z,98715.13
2023-03-21T07:31:19.493Z,98715.66
2023-03-21T07:32:21.423Z,98717.53
2023-03-21T07:33:25.502Z,98710.28
2023-03-21T07:34:31.651Z,98717.53
2023-03-21T07:35:34.375Z,98712.16
2023-03-21T07:36:36.990Z,98714.03
2023-03-21T07:37:40.385Z,98719.16
2023-03-21T07:38:45.383Z,98718.88
2023-03-21T07:39:47.377Z,98711.59
2023-03-21T07:40:50.523Z,98716.97
2023-03-21T07:41:53.206Z,98715.09
2023-03-21T07:42:55.222Z,98712.41
2023-03-21T07:43:57.585Z,98714.84
2023-03-21T07:44:59.534Z,98713.22
2023-03-21T07:46:02.107Z,98711.06
2023-03-21T07:47:06.277Z,98716.47
2023-03-21T07:48:09.262Z,98714.56
2023-03-21T07:49:11.165Z,98716.97
2023-03-21T07:50:14.608Z,98719.16
2023-03-21T07:51:16.408Z,98723.16
2023-03-21T07:52:18.221Z,98715.91
2023-03-21T07:53:20.924Z,98715.09
2023-03-21T07:54:23.091Z,98718.59
2023-03-21T07:55:25.049Z,98716.41
2023-03-21T07:56:26.930Z,98719.91
2023-03-21T07:57:28.824Z,98714.53
2023-03-21T07:58:30.733Z,98719.13
2023-03-21T07:59:32.603Z,98715.34
2023-03-21T08:00:34.552Z,98713.16
2023-03-21T08:01:36.311Z,98713.16
2023-03-21T08:02:38.209Z,98714.53
2023-03-21T08:03:40.062Z,98706.44
2023-03-21T08:04:42.080Z,98718.03
2023-03-21T08:05:44.947Z,98709.94
2023-03-21T08:06:46.747Z,98718.56
2023-03-21T08:07:49.192Z,98709.38
2023-03-21T08:08:51.589Z,98707.50
2023-03-21T08:09:53.395Z,98718.00
2023-03-21T08:10:55.684Z,98713.41
2023-03-21T08:11:57.520Z,98721.22
2023-03-21T08:12:59.325Z,98712.59
2023-03-21T08:14:01.791Z,98716.63
2023-03-21T08:15:04.016Z,98715.00
2023-03-21T08:16:07.724Z,98710.44
2023-03-21T08:17:10.494Z,98722.53
2023-03-21T08:18:12.330Z,98710.94
2023-03-21T08:19:14.243Z,98713.66
2023-03-21T08:20:22.014Z,98712.78
2023-03-21T08:21:24.419Z,98712.00
2023-03-21T08:22:26.237Z,98710.09
2023-03-21T08:23:28.082Z,98713.34
2023-03-21T08:24:30.131Z,98711.47
2023-03-21T08:25:32.165Z,98706.59
2023-03-21T08:26:34.282Z,98707.41
2023-03-21T08:27:36.098Z,98706.03
2023-03-21T08:28:39.502Z,98710.63
2023-03-21T08:29:42.327Z,98705.78
2023-03-21T08:30:44.358Z,98706.84
2023-03-21T08:31:46.138Z,98711.69
2023-03-21T08:32:48.256Z,98706.06
2023-03-21T08:33:54.692Z,98703.06
2023-03-21T08:35:01.262Z,98706.81
2023-03-21T08:36:05.319Z,98702.22
2023-03-21T08:37:07.225Z,98703.03
2023-03-21T08:38:10.025Z,98708.94
2023-03-21T08:39:11.856Z,98701.66
2023-03-21T08:40:18.706Z,98702.22
2023-03-21T08:41:22.132Z,98699.22
2023-03-21T08:42:24.010Z,98693.03
2023-03-21T08:43:26.801Z,98706.22
2023-03-21T08:44:28.682Z,98698.16
2023-03-21T08:45:31.033Z,98692.75
2023-03-21T08:46:33.399Z,98692.47
2023-03-21T08:47:35.737Z,98695.41
2023-03-21T08:48:38.875Z,98689.22
2023-03-21T08:49:41.674Z,98684.69
2023-03-21T08:50:43.897Z,98690.56
2023-03-21T08:51:45.837Z,98691.88
2023-03-21T08:52:49.028Z,98681.09
2023-03-21T08:53:53.484Z,98684.84
2023-03-21T08:54:55.953Z,98691.03
2023-03-21T08:55:57.861Z,98682.66
2023-03-21T08:56:59.696Z,98685.34
2023-03-21T08:58:01.904Z,98686.97
2023-03-21T08:59:04.496Z,98690.72
2023-03-21T09:00:15.171Z,98691.53
2023-03-21T09:01:17.391Z,98681.84
2023-03-21T09:02:19.201Z,98681.84
2023-03-21T09:03:21.105Z,98686.44
2023-03-21T09:04:25.921Z,98689.13
2023-03-21T09:05:28.421Z,98685.06
2023-03-21T09:06:30.304Z,98688.59
2023-03-21T09:07:34.700Z,98680.78
2023-03-21T09:08:39.811Z,98684.28
2023-03-21T09:09:42.167Z,98678.34
2023-03-21T09:10:44.009Z,98683.28
2023-03-21T09:11:45.918Z,98681.91
2023-03-21T09:12:50.265Z,98675.72
2023-03-21T09:13:52.097Z,98682.19
2023-03-21T09:14:54.008Z,98685.97
2023-03-21T09:15:58.191Z,98678.94
2023-03-21T09:17:00.909Z,98684.63
2023-03-21T09:18:13.595Z,98687.59
2023-03-21T09:19:16.016Z,98684.91
2023-03-21T09:20:20.784Z,98687.09
2023-03-21T09:21:24.188Z,98681.97
2023-03-21T09:22:27.275Z,98685.75
2023-03-21T09:23:29.523Z,98679.06
2023-03-21T09:24:31.604Z,98679.06
2023-03-21T09:25:33.521Z,98686.31
2023-03-21T09:26:36.014Z,98679.31
2023-03-21T09:27:37.837Z,98689.00
2023-03-21T09:28:40.539Z,98691.16
2023-03-21T09:29:46.001Z,98682.28
2023-03-21T09:30:48.188Z,98686.88
2023-03-21T09:31:50.120Z,98680.09
2023-03-21T09:32:53.381Z,98682.00
2023-03-21T09:33:58.079Z,98689.28
2023-03-21T09:35:00.311Z,98680.09
2023-03-21T09:36:03.713Z,98679.84
2023-03-21T09:37:10.044Z,98681.75
2023-03-21T09:38:11.956Z,98680.66
2023-03-21T09:39:14.175Z,98684.16
2023-03-21T09:40:30.664Z,98688.16
2023-03-21T09:42:15.480Z,98684.91
2023-03-21T09:44:24.782Z,98689.47
2023-03-21T09:45:47.110Z,98681.94
2023-03-21T09:47:05.433Z,98678.19
2023-03-21T09:48:33.540Z,98682.78
2023-03-21T09:49:43.534Z,98683.88
2023-03-21T09:50:46.200Z,98680.91
2023-03-21T09:51:52.893Z,98685.50
2023-03-21T09:53:05.249Z,98676.88
2023-03-21T09:54:33.437Z,98686.28
2023-03-21T09:55:40.784Z,98683.94
2023-03-21T09:56:45.465Z,98682.00
2023-03-21T09:58:00.607Z,98679.56
2023-03-21T09:59:07.646Z,98682.50
2023-03-21T10:00:30.963Z,98680.03
2023-03-21T10:01:35.191Z,98682.72
2023-03-21T10:02:49.542Z,98679.50
2023-03-21T10:03:53.486Z,98677.09
2023-03-21T10:04:56.162Z,98676.25
2023-03-21T10:06:01.181Z,98678.69
2023-03-21T10:07:03.961Z,98672.50
2023-03-21T10:08:24.269Z,98673.53
2023-03-21T10:09:30.067Z,98667.63
2023-03-21T10:10:39.812Z,98670.84
2023-03-21T10:11:52.779Z,98670.56
2023-03-21T10:12:56.615Z,98662.25
2023-03-21T10:14:12.958Z,98668.44
2023-03-21T10:15:22.826Z,98665.75
2023-03-21T10:16:41.487Z,98662.53
2023-03-21T10:17:48.873Z,98663.06
2023-03-21T10:18:51.578Z,98656.94
2023-03-21T10:20:12.351Z,98659.09
2023-03-21T10:21:56.423Z,98663.91
2023-03-21T10:22:52.962Z,98658.53
2023-03-21T10:24:00.324Z,98656.41
2023-03-21T10:25:02.546Z,98658.84
2023-03-21T10:26:08.005Z,98655.06
2023-03-21T10:27:13.179Z,98655.84
2023-03-21T10:28:28.018Z,98657.50
2023-03-21T10:29:43.153Z,98654.50
2023-03-21T10:30:51.637Z,98657.50
2023-03-21T10:31:55.443Z,98652.63
2023-03-21T10:33:05.360Z,98649.41
2023-03-21T10:34:20.550Z,98653.13
2023-03-21T10:35:22.419Z,98644.53
2023-03-21T10:36:30.021Z,98649.66
2023-03-21T10:37:32.514Z,98649.66
2023-03-21T10:38:35.705Z,98643.97
2023-03-21T10:39:45.565Z,98646.38
2023-03-21T10:40:47.697Z,98643.41
2023-03-21T10:41:49.517Z,98641.22
2023-03-21T10:42:51.446Z,98637.72
2023-03-21T10:44:11.842Z,98636.31
2023-03-21T10:45:20.519Z,98638.72
2023-03-21T10:46:27.368Z,98639.53
2023-03-21T10:47:34.316Z,98643.84
2023-03-21T10:48:41.238Z,98642.50
2023-03-21T10:50:06.219Z,98643.28
2023-03-21T10:51:08.976Z,98640.25
2023-03-21T10:52:14.029Z,98647.53
2023-03-21T10:53:27.354Z,98635.38
2023-03-21T10:54:35.635Z,98645.09
2023-03-21T10:55:43.068Z,98639.94
2023-03-21T10:57:11.850Z,98640.97
2023-03-21T10:58:27.283Z,98639.38
2023-03-21T10:59:41.950Z,98638.28
2023-03-21T11:00:45.436Z,98638.06
2023-03-21T11:01:55.622Z,98640.69
2023-03-21T11:02:58.254Z,98636.69
2023-03-21T11:04:10.469Z,98635.28
2023-03-21T11:05:39.661Z,98637.97
2023-03-21T11:06:46.710Z,98633.16
2023-03-21T11:08:10.299Z,98641.75
2023-03-21T11:09:25.195Z,98634.47
2023-03-21T11:10:35.296Z,98637.16
2023-03-21T11:12:02.695Z,98633.13
2023-03-21T11:13:18.720Z,98626.91
2023-03-21T11:14:46.371Z,98632.81
2023-03-21T11:15:58.573Z,98632.31
2023-03-21T11:17:00.836Z,98626.66
2023-03-21T11:18:22.433Z,98626.13
2023-03-21T11:19:35.698Z,98623.13
2023-03-21T11:20:50.955Z,98623.13
2023-03-21T11:21:53.430Z,98619.38
2023-03-21T11:22:56.741Z,98625.56
2023-03-21T11:23:58.614Z,98624.22
2023-03-21T11:25:02.598Z,98625.28
2023-03-21T11:26:16.052Z,98623.94
2023-03-21T11:27:18.588Z,98625.28
2023-03-21T11:28:25.794Z,98621.25
2023-03-21T11:29:32.730Z,98619.34
2023-03-21T11:30:34.750Z,98623.94
2023-03-21T11:31:41.566Z,98623.34
2023-03-21T11:32:43.538Z,98621.25
2023-03-21T11:33:57.107Z,98626.88
2023-03-21T11:35:20.787Z,98612.81
2023-03-21T11:36:22.658Z,98617.97
2023-03-21T11:37:34.398Z,98620.13
2023-03-21T11:38:40.445Z,98613.91
2023-03-21T11:39:45.787Z,98615.53
2023-03-21T11:40:59.832Z,98616.31
2023-03-21T11:42:01.670Z,98610.72
2023-03-21T11:43:18.523Z,98611.72
2023-03-21T11:44:35.416Z,98613.84
2023-03-21T11:45:38.608Z,98606.34
2023-03-21T11:46:41.233Z,98601.22
2023-03-21T11:47:44.197Z,98606.91
2023-03-21T11:48:50.924Z,98610.63
2023-03-21T11:49:58.350Z,98607.44
2023-03-21T11:51:29.287Z,98606.81
2023-03-21T11:52:49.614Z,98604.13
2023-03-21T11:54:05.649Z,98594.94
2023-03-21T11:55:59.056Z,98596.75
2023-03-21T11:57:29.639Z,98590.56
2023-03-21T11:59:18.954Z,98590.28
2023-03-21T12:00:39.564Z,98579.78
2023-03-21T12:02:05.703Z,98585.16
2023-03-21T12:03:55.014Z,98580.00
2023-03-21T12:05:20.017Z,98577.88
2023-03-21T12:06:36.678Z,98575.97
2023-03-21T12:08:12.958Z,98576.78
2023-03-21T12:09:36.645Z,98578.38
2023-03-21T12:10:58.109Z,98574.09
2023-03-21T12:12:38.807Z,98570.53
2023-03-21T12:14:10.969Z,98570.53
2023-03-21T12:15:31.334Z,98569.75
2023-03-21T12:17:40.529Z,98558.88
2023-03-21T12:19:23.797Z,98563.75
2023-03-21T12:20:41.939Z,98561.34
2023-03-21T12:22:15.345Z,98563.25
2023-03-21T12:23:17.133Z,98555.41
2023-03-21T12:24:24.803Z,98556.53
2023-03-21T12:25:39.726Z,98552.47
2023-03-21T12:27:29.830Z,98554.28
2023-03-21T12:28:59.230Z,98558.06
2023-03-21T12:30:42.879Z,98556.41
2023-03-21T12:32:37.103Z,98550.50
2023-03-21T12:34:18.515Z,98550.50
2023-03-21T12:35:50.787Z,98542.41
2023-03-21T12:37:28.103Z,98541.59
2023-03-21T12:39:14.635Z,98539.69
2023-03-21T12:40:37.151Z,98540.00
2023-03-21T12:42:21.479Z,98538.91
2023-03-21T12:43:50.820Z,98539.69
2023-03-21T12:45:00.809Z,98540.00
2023-03-21T12:46:14.532Z,98544.59
2023-03-21T12:47:32.719Z,98541.88
2023-03-21T12:48:47.477Z,98539.19
2023-03-21T12:49:58.067Z,98534.59
2023-03-21T12:51:03.804Z,98539.19
2023-03-21T12:52:19.649Z,98537.81
2023-03-21T12:53:53.091Z,98541.25
2023-03-21T12:55:35.295Z,98537.47
2023-03-21T12:57:13.280Z,98538.56
2023-03-21T12:58:22.819Z,98536.41
2023-03-21T12:59:56.079Z,98535.88
2023-03-21T13:01:03.727Z,98535.06
2023-03-21T13:02:31.340Z,98531.78
2023-03-21T13:03:45.409Z,98528.28
2023-03-21T13:05:18.038Z,98525.50
2023-03-21T13:06:25.057Z,98536.88
2023-03-21T13:07:31.153Z,98526.66
2023-03-21T13:08:38.234Z,98522.28
2023-03-21T13:09:42.156Z,98526.88
2023-03-21T13:10:45.916Z,98527.97
2023-03-21T13:11:52.179Z,98528.19
2023-03-21T13:13:18.160Z,98530.84
2023-03-21T13:14:30.700Z,98522.75
2023-03-21T13:15:57.347Z,98517.84
2023-03-21T13:17:15.108Z,98522.16
2023-03-21T13:18:50.024Z,98510.28
2023-03-21T13:20:07.468Z,98520.78
2023-03-21T13:21:41.513Z,98513.75
2023-03-21T13:22:43.347Z,98513.78
2023-03-21T13:24:40.779Z,98510.16
2023-03-21T13:25:52.413Z,98510.25
2023-03-21T13:27:24.740Z,98508.06
2023-03-21T13:28:31.469Z,98508.34
2023-03-21T13:29:44.816Z,98510.25